createdAt,value
2022-11-10T00:00:26.588Z,9.70
2022-11-10T00:02:17.931Z,9.60
2022-11-10T00:04:09.334Z,9.60
2022-11-10T00:06:03.812Z,9.60
2022-11-10T00:07:55.179Z,9.60
2022-11-10T00:09:46.567Z,9.50
2022-11-10T00:11:37.966Z,9.50
2022-11-10T00:13:33.798Z,9.50
2022-11-10T00:15:42.991Z,9.50
2022-11-10T00:17:36.162Z,9.40
2022-11-10T00:19:28.505Z,9.30
2022-11-10T00:21:20.288Z,9.40
2022-11-10T00:23:12.120Z,9.40
2022-11-10T00:25:03.798Z,9.40
2022-11-10T00:26:56.070Z,9.40
2022-11-10T00:28:48.955Z,9.40
2022-11-10T00:30:43.377Z,9.50
2022-11-10T00:32:38.399Z,9.50
2022-11-10T00:34:30.013Z,9.50
2022-11-10T00:36:21.444Z,9.40
2022-11-10T00:38:12.845Z,9.40
2022-11-10T00:40:04.356Z,9.40
2022-11-10T00:41:56.227Z,9.40
2022-11-10T00:43:49.469Z,9.40
2022-11-10T00:45:44.123Z,9.40
2022-11-10T00:47:35.506Z,9.40
2022-11-10T00:49:26.884Z,9.30
2022-11-10T00:51:23.330Z,9.30
2022-11-10T00:53:15.163Z,9.10
2022-11-10T00:55:07.407Z,9.20
2022-11-10T00:56:58.965Z,9.10
2022-11-10T00:58:52.065Z,9.20
2022-11-10T01:00:44.066Z,9.10
2022-11-10T01:02:35.774Z,9.00
2022-11-10T01:04:27.277Z,8.90
2022-11-10T01:06:20.581Z,8.90
2022-11-10T01:08:12.622Z,8.90
2022-11-10T01:10:04.628Z,8.90
2022-11-10T01:11:56.354Z,8.80
2022-11-10T01:13:48.564Z,8.70
2022-11-10T01:15:42.592Z,8.70
2022-11-10T01:17:34.433Z,8.70
2022-11-10T01:19:26.124Z,8.70
2022-11-10T01:21:17.812Z,8.70
2022-11-10T01:23:09.240Z,8.70
2022-11-10T01:25:00.728Z,8.70
2022-11-10T01:26:52.251Z,8.60
2022-11-10T01:28:43.758Z,8.60
2022-11-10T01:30:35.422Z,8.70
2022-11-10T01:32:28.227Z,8.70
2022-11-10T01:34:20.150Z,8.70
2022-11-10T01:36:12.284Z,8.60
2022-11-10T01:38:03.974Z,8.50
2022-11-10T01:39:55.615Z,8.40
2022-11-10T01:41:47.488Z,8.40
2022-11-10T01:43:39.735Z,8.40
2022-11-10T01:45:47.562Z,8.30
2022-11-10T01:47:40.450Z,8.10
2022-11-10T01:49:33.686Z,8.20
2022-11-10T01:51:29.207Z,8.30
2022-11-10T01:53:26.405Z,8.30
2022-11-10T01:55:19.028Z,8.40
2022-11-10T01:57:14.248Z,8.40
2022-11-10T01:59:10.895Z,8.50
2022-11-10T02:01:02.590Z,8.60
2022-11-10T02:03:00.991Z,8.50
2022-11-10T02:04:53.233Z,8.50
2022-11-10T02:06:46.895Z,8.40
2022-11-10T02:08:38.566Z,8.30
2022-11-10T02:10:30.361Z,8.30
2022-11-10T02:12:36.970Z,8.20
2022-11-10T02:14:28.704Z,8.20
2022-11-10T02:16:20.832Z,8.20
2022-11-10T02:18:13.953Z,8.20
2022-11-10T02:20:08.122Z,8.20
2022-11-10T02:22:00.990Z,8.10
2022-11-10T02:23:53.602Z,8.10
2022-11-10T02:25:44.925Z,8.10
2022-11-10T02:27:36.399Z,8.10
2022-11-10T02:29:28.148Z,8.10
2022-11-10T02:31:19.508Z,8.00
2022-11-10T02:33:11.195Z,7.90
2022-11-10T02:35:02.776Z,7.80
2022-11-10T02:36:54.284Z,7.70
2022-11-10T02:38:46.938Z,7.50
2022-11-10T02:40:38.562Z,7.40
2022-11-10T02:42:29.984Z,7.30
2022-11-10T02:44:21.688Z,7.10
2022-11-10T02:46:13.624Z,7.10
2022-11-10T02:48:05.613Z,7.20
2022-11-10T02:49:57.160Z,7.20
2022-11-10T02:51:48.553Z,7.10
2022-11-10T02:53:39.972Z,7.10
2022-11-10T02:55:32.915Z,7.00
2022-11-10T02:57:24.612Z,7.00
2022-11-10T02:59:16.397Z,7.00
2022-11-10T03:01:08.677Z,6.90
2022-11-10T03:03:01.977Z,6.80
2022-11-10T03:04:53.432Z,6.90
2022-11-10T03:06:45.142Z,7.10
2022-11-10T03:08:37.810Z,7.30
2022-11-10T03:10:30.848Z,7.60
2022-11-10T03:12:31.254Z,8.00
2022-11-10T03:14:22.765Z,8.30
2022-11-10T03:16:14.130Z,8.70
2022-11-10T03:18:06.478Z,8.80
2022-11-10T03:19:57.844Z,8.90
2022-11-10T03:21:49.218Z,8.80
2022-11-10T03:23:41.074Z,8.50
2022-11-10T03:25:33.591Z,8.00
2022-11-10T03:27:26.343Z,7.70
2022-11-10T03:29:18.090Z,7.60
2022-11-10T03:31:09.471Z,7.50
2022-11-10T03:33:00.897Z,7.40
2022-11-10T03:34:52.511Z,7.30
2022-11-10T03:36:44.016Z,7.20
2022-11-10T03:38:35.534Z,7.10
2022-11-10T03:40:27.692Z,7.00
2022-11-10T03:42:19.447Z,6.90
2022-11-10T03:44:12.319Z,6.90
2022-11-10T03:46:04.208Z,7.00
2022-11-10T03:47:55.803Z,7.10
2022-11-10T03:49:47.794Z,7.10
2022-11-10T03:51:39.280Z,7.10
2022-11-10T03:53:30.626Z,7.10
2022-11-10T03:55:22.075Z,7.00
2022-11-10T03:57:13.555Z,7.00
2022-11-10T03:59:05.180Z,7.00
2022-11-10T04:00:58.794Z,6.90
2022-11-10T04:02:50.460Z,6.90
2022-11-10T04:04:59.114Z,7.30
2022-11-10T04:07:08.052Z,7.90
2022-11-10T04:09:02.405Z,8.30
2022-11-10T04:10:53.841Z,8.50
2022-11-10T04:13:02.506Z,8.60
2022-11-10T04:15:11.639Z,8.60
2022-11-10T04:17:05.175Z,8.40
2022-11-10T04:18:56.630Z,8.00
2022-11-10T04:20:48.460Z,7.90
2022-11-10T04:22:57.481Z,7.80
2022-11-10T04:24:49.142Z,7.60
2022-11-10T04:26:40.580Z,7.40
2022-11-10T04:28:32.161Z,7.20
2022-11-10T04:30:23.879Z,7.00
2022-11-10T04:32:16.623Z,6.90
2022-11-10T04:34:11.087Z,6.90
2022-11-10T04:36:02.714Z,7.00
2022-11-10T04:37:54.179Z,6.90
2022-11-10T04:39:45.692Z,6.90
2022-11-10T04:41:37.487Z,6.80
2022-11-10T04:43:27.879Z,6.70
2022-11-10T04:45:19.338Z,6.70
2022-11-10T04:47:12.099Z,6.60
2022-11-10T04:49:06.176Z,6.60
2022-11-10T04:50:58.083Z,6.30
2022-11-10T04:52:49.600Z,6.30
2022-11-10T04:54:40.967Z,6.40
2022-11-10T04:56:32.469Z,6.40
2022-11-10T04:58:23.922Z,6.30
2022-11-10T05:00:17.471Z,6.20
2022-11-10T05:02:09.061Z,6.10
2022-11-10T05:04:01.129Z,6.10
2022-11-10T05:05:53.909Z,6.00
2022-11-10T05:07:48.910Z,5.90
2022-11-10T05:09:40.713Z,6.00
2022-11-10T05:11:32.335Z,6.00
2022-11-10T05:13:24.627Z,6.00
2022-11-10T05:15:16.418Z,6.00
2022-11-10T05:17:08.042Z,5.90
2022-11-10T05:19:00.289Z,5.90
2022-11-10T05:20:53.850Z,5.90
2022-11-10T05:23:07.203Z,5.90
2022-11-10T05:24:58.870Z,5.90
2022-11-10T05:26:50.310Z,6.00
2022-11-10T05:28:43.661Z,6.00
2022-11-10T05:30:35.595Z,6.00
2022-11-10T05:32:26.906Z,6.10
2022-11-10T05:34:18.262Z,6.10
2022-11-10T05:36:12.029Z,6.10
2022-11-10T05:38:03.845Z,6.20
2022-11-10T05:39:55.672Z,6.20
2022-11-10T05:41:47.212Z,6.30
2022-11-10T05:43:38.791Z,6.30
2022-11-10T05:45:30.807Z,6.20
2022-11-10T05:47:22.182Z,6.20
2022-11-10T05:49:13.553Z,6.30
2022-11-10T05:51:05.354Z,6.30
2022-11-10T05:52:58.421Z,6.30
2022-11-10T05:54:50.180Z,6.20
2022-11-10T05:56:41.813Z,6.20
2022-11-10T05:58:33.217Z,6.20
2022-11-10T06:00:27.233Z,6.20
2022-11-10T06:02:19.131Z,6.20
2022-11-10T06:04:11.198Z,6.30
2022-11-10T06:06:02.591Z,6.30
2022-11-10T06:07:54.522Z,6.30
2022-11-10T06:09:48.417Z,6.30
2022-11-10T06:11:40.038Z,6.30
2022-11-10T06:13:31.751Z,6.30
2022-11-10T06:15:23.614Z,6.20
2022-11-10T06:17:15.530Z,6.10
2022-11-10T06:19:07.242Z,6.10
2022-11-10T06:20:58.898Z,6.20
2022-11-10T06:23:01.427Z,6.20
2022-11-10T06:24:54.609Z,6.30
2022-11-10T06:26:46.305Z,6.30
2022-11-10T06:28:37.697Z,6.40
2022-11-10T06:30:30.285Z,6.40
2022-11-10T06:32:21.861Z,6.50
2022-11-10T06:34:13.176Z,6.50
2022-11-10T06:36:04.795Z,6.60
2022-11-10T06:38:01.451Z,6.60
2022-11-10T06:39:54.206Z,6.50
2022-11-10T06:41:45.559Z,6.50
2022-11-10T06:43:37.052Z,6.60
2022-11-10T06:45:29.071Z,6.60
2022-11-10T06:47:20.815Z,6.80
2022-11-10T06:49:12.298Z,6.90
2022-11-10T06:51:04.765Z,7.20
2022-11-10T06:52:56.868Z,7.80
2022-11-10T06:54:48.758Z,8.30
2022-11-10T06:56:42.074Z,9.20
2022-11-10T06:58:33.799Z,9.60
2022-11-10T07:00:26.848Z,9.50
2022-11-10T07:02:18.428Z,9.40
2022-11-10T07:04:25.089Z,9.20
2022-11-10T07:06:17.025Z,8.90
2022-11-10T07:08:10.310Z,8.80
2022-11-10T07:10:06.758Z,8.90
2022-11-10T07:12:00.236Z,8.90
2022-11-10T07:13:51.979Z,8.90
2022-11-10T07:15:43.743Z,8.90
2022-11-10T07:17:40.859Z,8.90
2022-11-10T07:19:32.883Z,8.90
2022-11-10T07:21:24.437Z,8.90
2022-11-10T07:23:16.196Z,8.90
2022-11-10T07:25:08.388Z,8.90
2022-11-10T07:27:01.786Z,9.00
2022-11-10T07:28:53.168Z,9.20
2022-11-10T07:30:44.539Z,9.20
2022-11-10T07:32:36.008Z,9.30
2022-11-10T07:34:27.572Z,9.30
2022-11-10T07:36:19.081Z,9.40
2022-11-10T07:38:13.937Z,9.50
2022-11-10T07:40:06.006Z,9.60
2022-11-10T07:41:57.934Z,9.50
2022-11-10T07:43:50.846Z,9.60
2022-11-10T07:45:42.543Z,9.70
2022-11-10T07:47:34.063Z,9.80
2022-11-10T07:49:25.618Z,9.80
2022-11-10T07:51:17.115Z,9.90
2022-11-10T07:53:10.470Z,9.90
2022-11-10T07:55:02.123Z,10.00
2022-11-10T07:56:54.219Z,10.20
2022-11-10T07:58:47.751Z,10.50
2022-11-10T08:00:41.309Z,10.70
2022-11-10T08:02:32.776Z,10.80
2022-11-10T08:04:24.339Z,10.90
2022-11-10T08:06:15.927Z,11.00
2022-11-10T08:08:08.143Z,11.00
2022-11-10T08:09:59.896Z,11.10
2022-11-10T08:11:51.388Z,11.10
2022-11-10T08:13:42.877Z,11.20
2022-11-10T08:15:35.326Z,11.30
2022-11-10T08:17:28.542Z,11.40
2022-11-10T08:19:20.306Z,11.40
2022-11-10T08:21:11.854Z,11.40
2022-11-10T08:23:05.420Z,11.60
2022-11-10T08:24:57.157Z,11.70
2022-11-10T08:26:48.693Z,11.80
2022-11-10T08:28:40.168Z,11.80
2022-11-10T08:30:32.282Z,11.80
2022-11-10T08:32:23.824Z,11.90
2022-11-10T08:34:16.542Z,11.90
2022-11-10T08:36:09.041Z,12.00
2022-11-10T08:38:09.437Z,12.00
2022-11-10T08:40:01.566Z,12.00
2022-11-10T08:41:53.034Z,12.10
2022-11-10T08:43:44.688Z,12.20
2022-11-10T08:51:13.448Z,12.40
2022-11-10T08:53:06.687Z,12.70
2022-11-10T08:54:58.501Z,12.70
2022-11-10T08:56:50.096Z,12.60
2022-11-10T08:58:50.195Z,12.50
2022-11-10T09:00:45.784Z,12.60
2022-11-10T09:02:37.185Z,12.70
2022-11-10T09:04:29.893Z,13.20
2022-11-10T09:08:14.144Z,14.10
2022-11-10T15:17:48.097Z,15.20
2022-11-10T15:19:53.994Z,12.10
2022-11-10T15:21:45.632Z,12.00
2022-11-10T15:23:41.576Z,12.00
2022-11-10T15:25:37.653Z,11.90
2022-11-10T15:27:31.167Z,11.80
2022-11-10T15:29:24.635Z,11.60
2022-11-10T15:31:24.581Z,11.60
2022-11-10T15:33:18.552Z,11.60
2022-11-10T15:35:25.991Z,11.60
2022-11-10T15:37:30.062Z,11.50
2022-11-10T15:39:27.418Z,11.40
2022-11-10T15:41:27.678Z,11.20
2022-11-10T15:43:28.063Z,11.30
2022-11-10T15:45:19.692Z,11.20
2022-11-10T15:47:13.627Z,11.20
2022-11-10T15:49:05.251Z,11.10
2022-11-10T15:50:59.521Z,11.10
2022-11-10T15:52:51.230Z,10.90
2022-11-10T15:54:44.167Z,10.80
2022-11-10T15:56:37.451Z,10.70
2022-11-10T15:58:29.435Z,10.50
2022-11-10T16:00:20.873Z,10.30
2022-11-10T16:02:21.363Z,10.10
2022-11-10T16:04:13.535Z,10.00
2022-11-10T16:06:05.083Z,9.80
2022-11-10T16:07:56.583Z,9.70
2022-11-10T16:09:48.302Z,9.50
2022-11-10T16:11:44.110Z,9.40
2022-11-10T16:13:36.543Z,9.40
2022-11-10T16:15:28.153Z,9.40
2022-11-10T16:17:20.170Z,9.30
2022-11-10T16:19:12.141Z,9.30
2022-11-10T16:21:04.010Z,9.30
2022-11-10T16:22:55.469Z,9.30
2022-11-10T16:24:47.317Z,9.60
2022-11-10T16:26:40.223Z,9.80
2022-11-10T16:28:32.048Z,10.10
2022-11-10T16:30:23.639Z,10.30
2022-11-10T16:32:15.190Z,10.50
2022-11-10T16:34:06.635Z,10.50
2022-11-10T16:35:58.252Z,10.40
2022-11-10T16:37:50.117Z,10.40
2022-11-10T16:39:41.796Z,10.50
2022-11-10T16:41:33.248Z,10.70
2022-11-10T16:43:27.259Z,10.70
2022-11-10T16:45:21.131Z,10.80
2022-11-10T16:47:18.249Z,10.80
2022-11-10T16:49:22.808Z,10.80
2022-11-10T16:51:15.186Z,10.80
2022-11-10T16:53:11.351Z,10.80
2022-11-10T16:55:02.826Z,10.80
2022-11-10T16:56:54.296Z,10.80
2022-11-10T16:58:47.254Z,10.90
2022-11-10T17:00:40.395Z,10.80
2022-11-10T17:02:35.770Z,10.70
2022-11-10T17:04:27.343Z,10.80
2022-11-10T17:06:20.927Z,10.90
2022-11-10T17:08:21.819Z,10.90
2022-11-10T17:10:16.801Z,10.90
2022-11-10T17:12:11.122Z,11.00
2022-11-10T17:14:04.390Z,11.00
2022-11-10T17:16:06.752Z,11.00
2022-11-10T17:18:04.685Z,10.90
2022-11-10T17:19:56.774Z,10.90
2022-11-10T17:21:49.613Z,10.80
2022-11-10T17:23:41.356Z,10.80
2022-11-10T17:25:36.190Z,10.70
2022-11-10T17:27:28.333Z,10.70
2022-11-10T17:29:22.440Z,10.70
2022-11-10T17:31:14.246Z,10.50
2022-11-10T17:33:06.189Z,10.50
2022-11-10T17:34:57.566Z,10.40
2022-11-10T17:36:50.813Z,10.40
2022-11-10T17:38:43.009Z,10.30
2022-11-10T17:40:35.937Z,10.20
2022-11-10T17:42:28.126Z,10.10
2022-11-10T17:44:21.148Z,10.10
2022-11-10T17:46:13.085Z,10.10
2022-11-10T17:48:05.100Z,10.10
2022-11-10T17:49:56.695Z,10.00
2022-11-10T17:51:48.224Z,9.90
2022-11-10T17:53:39.643Z,10.00
2022-11-10T17:55:34.287Z,9.90
2022-11-10T17:57:26.135Z,9.90
2022-11-10T17:59:17.656Z,9.70
2022-11-10T18:01:14.798Z,9.60
2022-11-10T18:03:08.737Z,9.60
2022-11-10T18:05:00.461Z,9.60
2022-11-10T18:06:51.909Z,9.80
2022-11-10T18:08:44.234Z,9.90
2022-11-10T18:10:35.606Z,9.90
2022-11-10T18:12:28.195Z,9.80
2022-11-10T18:14:19.736Z,9.70
2022-11-10T18:16:13.884Z,9.60
2022-11-10T18:18:05.576Z,9.40
2022-11-10T18:19:57.042Z,9.40
2022-11-10T18:21:48.820Z,9.40
2022-11-10T18:23:43.575Z,9.50
2022-11-10T18:25:35.661Z,9.60
2022-11-10T18:27:28.293Z,9.80
2022-11-10T18:29:19.804Z,9.70
2022-11-10T18:31:13.998Z,9.70
2022-11-10T18:33:06.608Z,9.60
2022-11-10T18:34:58.026Z,9.60
2022-11-10T18:36:51.429Z,9.70
2022-11-10T18:38:42.926Z,9.60
2022-11-10T18:40:34.840Z,9.50
2022-11-10T18:42:26.284Z,9.40
2022-11-10T18:44:18.256Z,9.30
2022-11-10T18:46:09.626Z,9.20
2022-11-10T18:48:06.125Z,9.20
2022-11-10T18:49:57.679Z,9.00
2022-11-10T18:51:49.501Z,8.90
2022-11-10T18:53:41.127Z,8.70
2022-11-10T18:55:32.705Z,8.50
2022-11-10T18:57:24.157Z,8.40
2022-11-10T18:59:16.251Z,8.40
2022-11-10T19:01:09.263Z,8.30
2022-11-10T19:03:01.322Z,8.20
2022-11-10T19:04:54.023Z,8.00
2022-11-10T19:06:45.663Z,7.80
2022-11-10T19:08:37.719Z,7.70
2022-11-10T19:10:29.576Z,7.60
2022-11-10T19:12:26.319Z,7.50
2022-11-10T19:14:18.350Z,7.40
2022-11-10T19:16:12.561Z,7.40
2022-11-10T19:18:04.378Z,7.40
2022-11-10T19:19:57.674Z,7.30
2022-11-10T19:21:49.366Z,7.20
2022-11-10T19:23:40.992Z,7.20
2022-11-10T19:25:33.340Z,7.10
2022-11-10T19:27:24.830Z,7.20
2022-11-10T19:29:16.351Z,7.10
2022-11-10T19:31:10.314Z,7.00
2022-11-10T19:33:02.528Z,6.90
2022-11-10T19:34:54.092Z,6.90
2022-11-10T19:36:49.034Z,6.90
2022-11-10T19:38:41.950Z,7.00
2022-11-10T19:40:33.393Z,7.10
2022-11-10T19:42:24.757Z,7.10
2022-11-10T19:44:16.146Z,7.00
2022-11-10T19:46:11.084Z,6.80
2022-11-10T19:48:02.807Z,6.80
2022-11-10T19:49:54.214Z,6.90
2022-11-10T19:51:47.041Z,6.80
2022-11-10T19:53:38.811Z,6.80
2022-11-10T19:55:32.906Z,6.80
2022-11-10T19:57:24.248Z,6.60
2022-11-10T19:59:18.191Z,6.60
2022-11-10T20:01:10.826Z,6.60
2022-11-10T20:03:02.388Z,6.60
2022-11-10T20:05:11.159Z,6.50
2022-11-10T20:07:21.818Z,6.50
2022-11-10T20:09:13.643Z,6.40
2022-11-10T20:11:07.702Z,6.40
2022-11-10T20:12:59.491Z,6.50
2022-11-10T20:14:51.014Z,6.70
2022-11-10T20:16:43.283Z,6.70
2022-11-10T20:18:35.874Z,6.60
2022-11-10T20:20:27.108Z,6.50
2022-11-10T20:22:20.017Z,6.50
2022-11-10T20:24:11.704Z,6.30
2022-11-10T20:26:04.951Z,6.20
2022-11-10T20:27:57.016Z,6.00
2022-11-10T20:29:48.550Z,6.10
2022-11-10T20:31:39.940Z,6.10
2022-11-10T20:33:32.995Z,6.10
2022-11-10T20:35:24.776Z,6.00
2022-11-10T20:37:16.217Z,6.00
2022-11-10T20:39:09.104Z,6.00
2022-11-10T20:41:06.053Z,6.00
2022-11-10T20:42:57.824Z,6.00
2022-11-10T20:44:49.299Z,6.00
2022-11-10T20:46:53.907Z,5.90
2022-11-10T20:48:47.935Z,5.90
2022-11-10T20:50:41.292Z,5.80
2022-11-10T20:52:34.257Z,5.80
2022-11-10T20:54:27.149Z,5.80
2022-11-10T20:56:18.970Z,5.80
2022-11-10T20:58:10.347Z,5.90
2022-11-10T21:00:01.862Z,5.90
2022-11-10T21:01:53.369Z,5.90
2022-11-10T21:03:44.852Z,6.00
2022-11-10T21:05:36.261Z,6.10
2022-11-10T21:07:27.830Z,6.00
2022-11-10T21:09:19.937Z,6.00
2022-11-10T21:11:32.943Z,6.00
2022-11-10T21:13:25.479Z,5.90
2022-11-10T21:15:17.514Z,5.90
2022-11-10T21:17:08.946Z,5.90
2022-11-10T21:19:01.309Z,5.90
2022-11-10T21:20:54.111Z,5.90
2022-11-10T21:22:45.816Z,6.00
2022-11-10T21:24:37.339Z,6.20
2022-11-10T21:26:30.619Z,6.10
2022-11-10T21:28:22.330Z,6.00
2022-11-10T21:30:22.668Z,6.00
2022-11-10T21:32:14.520Z,6.10
2022-11-10T21:34:06.404Z,6.00
2022-11-10T21:35:58.062Z,5.90
2022-11-10T21:37:50.042Z,5.80
2022-11-10T21:39:42.276Z,5.70
2022-11-10T21:41:35.234Z,5.70
2022-11-10T21:43:26.864Z,5.70
2022-11-10T21:45:18.345Z,5.80
2022-11-10T21:47:10.525Z,5.70
2022-11-10T21:49:06.263Z,5.80
2022-11-10T21:51:01.347Z,5.70
2022-11-10T21:52:53.016Z,5.80
2022-11-10T21:54:44.404Z,5.80
2022-11-10T21:56:37.124Z,5.70
2022-11-10T21:58:29.012Z,5.80
2022-11-10T22:00:20.958Z,5.90
2022-11-10T22:02:14.624Z,5.80
2022-11-10T22:04:06.247Z,5.80
2022-11-10T22:06:02.818Z,5.70
2022-11-10T22:07:54.575Z,5.60
2022-11-10T22:10:03.873Z,5.50
2022-11-10T22:12:14.192Z,5.40
2022-11-10T22:14:29.805Z,5.20
2022-11-10T22:16:42.295Z,5.10
2022-11-10T22:18:41.173Z,5.00
2022-11-10T22:20:32.491Z,5.00
2022-11-10T22:22:23.932Z,4.90
2022-11-10T22:24:26.538Z,4.90
2022-11-10T22:26:18.351Z,4.90
2022-11-10T22:28:11.251Z,4.90
2022-11-10T22:30:03.054Z,5.00
2022-11-10T22:31:54.503Z,5.00
2022-11-10T22:33:45.777Z,5.10
2022-11-10T22:35:46.025Z,5.10
2022-11-10T22:37:37.581Z,5.10
2022-11-10T22:39:49.331Z,5.20
2022-11-10T22:42:00.552Z,5.20
2022-11-10T22:44:04.485Z,5.00
2022-11-10T22:45:55.863Z,5.10
2022-11-10T22:48:04.489Z,5.00
2022-11-10T22:49:56.252Z,5.00
2022-11-10T22:51:49.163Z,5.20
2022-11-10T22:53:40.806Z,5.20
2022-11-10T22:55:32.471Z,5.30
2022-11-10T22:57:23.884Z,5.30
2022-11-10T22:59:16.791Z,5.30
2022-11-10T23:01:09.971Z,5.40
2022-11-10T23:03:01.364Z,5.40
2022-11-10T23:04:53.093Z,5.40
2022-11-10T23:06:44.654Z,5.40
2022-11-10T23:08:36.918Z,5.30
2022-11-10T23:10:28.641Z,5.30
2022-11-10T23:12:20.182Z,5.20
2022-11-10T23:14:12.351Z,5.20
2022-11-10T23:16:07.562Z,5.30
2022-11-10T23:18:05.255Z,5.20
2022-11-10T23:19:58.359Z,5.20
2022-11-10T23:21:49.888Z,5.20
2022-11-10T23:23:43.151Z,5.10
2022-11-10T23:25:35.058Z,5.00
2022-11-10T23:27:26.467Z,5.00
2022-11-10T23:29:17.876Z,5.00
2022-11-10T23:31:13.141Z,5.10
2022-11-10T23:33:04.793Z,5.00
2022-11-10T23:34:56.500Z,4.90
2022-11-10T23:36:47.974Z,4.80
2022-11-10T23:38:39.886Z,4.80
2022-11-10T23:40:31.300Z,4.80
2022-11-10T23:42:22.887Z,4.80
2022-11-10T23:44:14.356Z,4.80
2022-11-10T23:46:08.085Z,4.80
2022-11-10T23:48:06.872Z,4.70
2022-11-10T23:49:58.845Z,4.60
2022-11-10T23:51:50.381Z,4.60
2022-11-10T23:53:41.998Z,4.50
2022-11-10T23:55:33.634Z,4.50
2022-11-10T23:57:25.098Z,4.40
2022-11-10T23:59:16.615Z,4.30
